sensor_id;sensor_type;location;lat;lon;timestamp;pressure;altitude;pressure_sealevel;temperature;humidity
49835;BME280;35729;52.090;13.162;2023-03-19T00:01:07;100789.69;;;8.91;63.08
49835;BME280;35729;52.090;13.162;2023-03-19T00:03:36;100783.63;;;8.88;63.21
49835;BME280;35729;52.090;13.162;2023-03-19T00:06:05;100782.78;;;8.87;63.26
49835;BME280;35729;52.090;13.162;2023-03-19T00:08:34;100781.94;;;8.84;63.19
49835;BME280;35729;52.090;13.162;2023-03-19T00:11:05;100776.75;;;8.80;63.20
49835;BME280;35729;52.090;13.162;2023-03-19T00:13:34;100782.88;;;8.78;63.25
49835;BME280;35729;52.090;13.162;2023-03-19T00:16:03;100783.78;;;8.75;63.30
49835;BME280;35729;52.090;13.162;2023-03-19T00:18:34;100783.84;;;8.72;63.45
49835;BME280;35729;52.090;13.162;2023-03-19T00:21:03;100781.25;;;8.71;63.41
49835;BME280;35729;52.090;13.162;2023-03-19T00:23:32;100779.53;;;8.70;63.48
49835;BME280;35729;52.090;13.162;2023-03-19T00:26:00;100782.16;;;8.67;63.49
49835;BME280;35729;52.090;13.162;2023-03-19T00:28:29;100779.53;;;8.67;63.30
49835;BME280;35729;52.090;13.162;2023-03-19T00:31:06;100782.19;;;8.65;63.33
49835;BME280;35729;52.090;13.162;2023-03-19T00:33:37;100783.09;;;8.62;63.58
49835;BME280;35729;52.090;13.162;2023-03-19T00:36:07;100784.00;;;8.60;63.65
49835;BME280;35729;52.090;13.162;2023-03-19T00:38:36;100776.19;;;8.58;63.53
49835;BME280;35729;52.090;13.162;2023-03-19T00:41:05;100781.41;;;8.58;63.61
49835;BME280;35729;52.090;13.162;2023-03-19T00:43:34;100783.16;;;8.56;63.56
49835;BME280;35729;52.090;13.162;2023-03-19T00:46:03;100782.31;;;8.54;63.82
49835;BME280;35729;52.090;13.162;2023-03-19T00:48:31;100791.06;;;8.52;63.59
49835;BME280;35729;52.090;13.162;2023-03-19T00:51:07;100788.50;;;8.48;63.50
49835;BME280;35729;52.090;13.162;2023-03-19T00:53:36;100786.75;;;8.47;63.61
49835;BME280;35729;52.090;13.162;2023-03-19T00:56:07;100786.78;;;8.44;63.57
49835;BME280;35729;52.090;13.162;2023-03-19T00:58:36;100793.75;;;8.42;63.68
49835;BME280;35729;52.090;13.162;2023-03-19T01:01:05;100797.25;;;8.43;63.79
49835;BME280;35729;52.090;13.162;2023-03-19T01:03:34;100796.34;;;8.44;63.89
49835;BME280;35729;52.090;13.162;2023-03-19T01:06:06;100798.13;;;8.43;63.93
49835;BME280;35729;52.090;13.162;2023-03-19T01:08:34;100792.88;;;8.43;64.07
49835;BME280;35729;52.090;13.162;2023-03-19T01:11:08;100792.03;;;8.43;63.93
49835;BME280;35729;52.090;13.162;2023-03-19T01:13:36;100797.25;;;8.43;64.03
49835;BME280;35729;52.090;13.162;2023-03-19T01:16:06;100795.50;;;8.43;63.92
49835;BME280;35729;52.090;13.162;2023-03-19T01:18:35;100802.50;;;8.43;64.05
49835;BME280;35729;52.090;13.162;2023-03-19T01:21:06;100800.75;;;8.42;63.97
49835;BME280;35729;52.090;13.162;2023-03-19T01:23:35;100805.09;;;8.41;64.08
49835;BME280;35729;52.090;13.162;2023-03-19T01:26:04;100799.91;;;8.40;64.13
49835;BME280;35729;52.090;13.162;2023-03-19T01:28:32;100799.03;;;8.41;63.94
49835;BME280;35729;52.090;13.162;2023-03-19T01:31:04;100795.53;;;8.40;63.99
49835;BME280;35729;52.090;13.162;2023-03-19T01:33:33;100798.13;;;8.40;63.91
49835;BME280;35729;52.090;13.162;2023-03-19T01:36:06;100785.97;;;8.38;63.84
49835;BME280;35729;52.090;13.162;2023-03-19T01:38:35;100780.75;;;8.36;63.95
49835;BME280;35729;52.090;13.162;2023-03-19T01:41:03;100790.38;;;8.36;63.91
49835;BME280;35729;52.090;13.162;2023-03-19T01:43:32;100783.47;;;8.31;63.81
49835;BME280;35729;52.090;13.162;2023-03-19T01:46:03;100778.22;;;8.31;63.90
49835;BME280;35729;52.090;13.162;2023-03-19T01:48:37;100788.69;;;8.31;64.01
49835;BME280;35729;52.090;13.162;2023-03-19T01:51:10;100778.22;;;8.31;64.12
49835;BME280;35729;52.090;13.162;2023-03-19T01:53:41;100777.34;;;8.31;63.97
49835;BME280;35729;52.090;13.162;2023-03-19T01:56:14;100777.31;;;8.34;64.24
49835;BME280;35729;52.090;13.162;2023-03-19T01:58:47;100772.94;;;8.35;63.96
49835;BME280;35729;52.090;13.162;2023-03-19T02:01:17;100779.03;;;8.35;64.24
49835;BME280;35729;52.090;13.162;2023-03-19T02:03:45;100785.13;;;8.37;64.35
49835;BME280;35729;52.090;13.162;2023-03-19T02:06:17;100784.25;;;8.38;64.09
49835;BME280;35729;52.090;13.162;2023-03-19T02:08:47;100772.91;;;8.38;64.09
49835;BME280;35729;52.090;13.162;2023-03-19T02:11:17;100769.44;;;8.37;64.36
49835;BME280;35729;52.090;13.162;2023-03-19T02:13:46;100774.63;;;8.39;64.13
49835;BME280;35729;52.090;13.162;2023-03-19T02:16:15;100766.78;;;8.39;64.15
49835;BME280;35729;52.090;13.162;2023-03-19T02:18:43;100757.28;;;8.33;64.34
49835;BME280;35729;52.090;13.162;2023-03-19T02:21:17;100767.66;;;8.38;64.35
49835;BME280;35729;52.090;13.162;2023-03-19T02:23:52;100760.72;;;8.37;64.17
49835;BME280;35729;52.090;13.162;2023-03-19T02:26:26;100757.25;;;8.35;64.41
49835;BME280;35729;52.090;13.162;2023-03-19T02:28:56;100759.03;;;8.32;64.42
49835;BME280;35729;52.090;13.162;2023-03-19T02:31:25;100768.63;;;8.32;64.49
49835;BME280;35729;52.090;13.162;2023-03-19T02:33:58;100763.41;;;8.30;64.48
49835;BME280;35729;52.090;13.162;2023-03-19T02:36:30;100754.69;;;8.30;64.50
49835;BME280;35729;52.090;13.162;2023-03-19T02:39:03;100763.41;;;8.29;64.45
49835;BME280;35729;52.090;13.162;2023-03-19T02:41:36;100766.06;;;8.27;64.88
49835;BME280;35729;52.090;13.162;2023-03-19T02:44:08;100762.59;;;8.27;64.62
49835;BME280;35729;52.090;13.162;2023-03-19T02:46:39;100757.38;;;8.25;64.73
49835;BME280;35729;52.090;13.162;2023-03-19T02:49:07;100755.66;;;8.24;64.59
49835;BME280;35729;52.090;13.162;2023-03-19T02:51:36;100760.88;;;8.24;64.74
49835;BME280;35729;52.090;13.162;2023-03-19T02:54:06;100761.75;;;8.23;64.72
49835;BME280;35729;52.090;13.162;2023-03-19T02:56:37;100763.50;;;8.23;64.61
49835;BME280;35729;52.090;13.162;2023-03-19T02:59:06;100760.00;;;8.22;64.89
49835;BME280;35729;52.090;13.162;2023-03-19T03:01:34;100774.81;;;8.23;65.12
49835;BME280;35729;52.090;13.162;2023-03-19T03:04:03;100766.97;;;8.23;64.67
49835;BME280;35729;52.090;13.162;2023-03-19T03:06:31;100766.97;;;8.23;64.68
49835;BME280;35729;52.090;13.162;2023-03-19T03:09:00;100769.59;;;8.23;64.78
49835;BME280;35729;52.090;13.162;2023-03-19T03:11:29;100770.44;;;8.24;64.92
49835;BME280;35729;52.090;13.162;2023-03-19T03:14:00;100774.78;;;8.25;64.84
49835;BME280;35729;52.090;13.162;2023-03-19T03:16:29;100780.00;;;8.26;64.91
49835;BME280;35729;52.090;13.162;2023-03-19T03:18:57;100781.75;;;8.27;64.92
49835;BME280;35729;52.090;13.162;2023-03-19T03:21:26;100782.59;;;8.29;64.51
49835;BME280;35729;52.090;13.162;2023-03-19T03:23:55;100785.19;;;8.31;64.61
49835;BME280;35729;52.090;13.162;2023-03-19T03:26:23;100787.78;;;8.34;64.79
49835;BME280;35729;52.090;13.162;2023-03-19T03:28:52;100792.09;;;8.35;64.72
49835;BME280;35729;52.090;13.162;2023-03-19T03:31:23;100787.72;;;8.37;64.52
49835;BME280;35729;52.090;13.162;2023-03-19T03:33:52;100784.22;;;8.40;64.32
49835;BME280;35729;52.090;13.162;2023-03-19T03:36:20;100783.34;;;8.41;64.35
49835;BME280;35729;52.090;13.162;2023-03-19T03:38:49;100787.69;;;8.40;64.18
49835;BME280;35729;52.090;13.162;2023-03-19T03:41:18;100795.53;;;8.42;64.37
49835;BME280;35729;52.090;13.162;2023-03-19T03:43:46;100804.19;;;8.44;64.16
49835;BME280;35729;52.090;13.162;2023-03-19T03:46:15;100800.72;;;8.45;64.29
49835;BME280;35729;52.090;13.162;2023-03-19T03:48:46;100797.25;;;8.44;64.11
49835;BME280;35729;52.090;13.162;2023-03-19T03:51:15;100814.66;;;8.47;64.20
49835;BME280;35729;52.090;13.162;2023-03-19T03:53:50;100835.56;;;8.44;63.60
49835;BME280;35729;52.090;13.162;2023-03-19T03:56:19;100841.72;;;8.43;64.00
49835;BME280;35729;52.090;13.162;2023-03-19T03:58:47;100838.25;;;8.39;63.96
49835;BME280;35729;52.090;13.162;2023-03-19T04:01:16;100851.34;;;8.36;64.53
49835;BME280;35729;52.090;13.162;2023-03-19T04:03:48;100862.69;;;8.35;64.53
49835;BME280;35729;52.090;13.162;2023-03-19T04:06:18;100861.88;;;8.30;64.51
49835;BME280;35729;52.090;13.162;2023-03-19T04:08:49;100868.91;;;8.23;64.92
49835;BME280;35729;52.090;13.162;2023-03-19T04:11:18;100869.84;;;8.19;64.96
49835;BME280;35729;52.090;13.162;2023-03-19T04:13:47;100866.38;;;8.15;65.23
49835;BME280;35729;52.090;13.162;2023-03-19T04:16:16;100867.22;;;8.16;65.25
49835;BME280;35729;52.090;13.162;2023-03-19T04:18:48;100863.78;;;8.14;65.27
49835;BME280;35729;52.090;13.162;2023-03-19T04:21:23;100863.78;;;8.12;65.37
49835;BME280;35729;52.090;13.162;2023-03-19T04:23:53;100854.25;;;8.08;65.62
49835;BME280;35729;52.090;13.162;2023-03-19T04:26:21;100862.13;;;8.05;65.81
49835;BME280;35729;52.090;13.162;2023-03-19T04:28:50;100868.22;;;8.06;65.97
49835;BME280;35729;52.090;13.162;2023-03-19T04:31:18;100852.56;;;8.04;66.02
49835;BME280;35729;52.090;13.162;2023-03-19T04:33:49;100850.81;;;8.03;66.04
49835;BME280;35729;52.090;13.162;2023-03-19T04:36:18;100856.91;;;8.04;66.34
49835;BME280;35729;52.090;13.162;2023-03-19T04:38:46;100858.66;;;8.03;66.44
49835;BME280;35729;52.090;13.162;2023-03-19T04:41:15;100855.19;;;8.03;66.38
49835;BME280;35729;52.090;13.162;2023-03-19T04:43:44;100853.44;;;8.02;66.75
49835;BME280;35729;52.090;13.162;2023-03-19T04:46:13;100855.19;;;8.01;66.81
49835;BME280;35729;52.090;13.162;2023-03-19T04:48:41;100861.31;;;7.98;66.71
49835;BME280;35729;52.090;13.162;2023-03-19T04:51:12;100861.31;;;7.98;66.79
49835;BME280;35729;52.090;13.162;2023-03-19T04:53:41;100854.34;;;7.96;67.15
49835;BME280;35729;52.090;13.162;2023-03-19T04:56:10;100853.53;;;7.94;67.16
49835;BME280;35729;52.090;13.162;2023-03-19T04:58:40;100857.91;;;7.90;67.07
49835;BME280;35729;52.090;13.162;2023-03-19T05:01:09;100862.28;;;7.88;67.63
49835;BME280;35729;52.090;13.162;2023-03-19T05:03:38;100855.31;;;7.86;67.55
49835;BME280;35729;52.090;13.162;2023-03-19T05:06:06;100857.09;;;7.82;67.75
49835;BME280;35729;52.090;13.162;2023-03-19T05:08:37;100858.88;;;7.77;67.85
49835;BME280;35729;52.090;13.162;2023-03-19T05:11:06;100858.03;;;7.73;67.89
49835;BME280;35729;52.090;13.162;2023-03-19T05:13:34;100848.47;;;7.71;68.15
49835;BME280;35729;52.090;13.162;2023-03-19T05:16:03;100844.16;;;7.68;68.12
49835;BME280;35729;52.090;13.162;2023-03-19T05:18:31;100854.63;;;7.66;68.23
49835;BME280;35729;52.090;13.162;2023-03-19T05:21:00;100845.94;;;7.66;68.42
49835;BME280;35729;52.090;13.162;2023-03-19T05:23:29;100848.53;;;7.64;68.47
49835;BME280;35729;52.090;13.162;2023-03-19T05:26:00;100853.75;;;7.64;68.39
49835;BME280;35729;52.090;13.162;2023-03-19T05:28:28;100844.22;;;7.63;68.45
49835;BME280;35729;52.090;13.162;2023-03-19T05:30:57;100840.72;;;7.61;68.54
49835;BME280;35729;52.090;13.162;2023-03-19T05:33:25;100849.44;;;7.60;68.75
49835;BME280;35729;52.090;13.162;2023-03-19T05:35:54;100852.91;;;7.59;68.75
49835;BME280;35729;52.090;13.162;2023-03-19T05:38:22;100841.63;;;7.59;68.76
49835;BME280;35729;52.090;13.162;2023-03-19T05:40:51;100845.09;;;7.59;68.78
49835;BME280;35729;52.090;13.162;2023-03-19T05:43:22;100849.47;;;7.57;68.91
49835;BME280;35729;52.090;13.162;2023-03-19T05:45:51;100839.06;;;7.56;68.78
49835;BME280;35729;52.090;13.162;2023-03-19T05:48:19;100840.78;;;7.55;68.90
49835;BME280;35729;52.090;13.162;2023-03-19T05:50:48;100848.59;;;7.55;69.10
49835;BME280;35729;52.090;13.162;2023-03-19T05:53:17;100843.44;;;7.52;69.06
49835;BME280;35729;52.090;13.162;2023-03-19T05:55:45;100849.50;;;7.53;69.20
49835;BME280;35729;52.090;13.162;2023-03-19T05:58:15;100855.56;;;7.53;68.96
49835;BME280;35729;52.090;13.162;2023-03-19T06:00:46;100853.88;;;7.52;69.04
49835;BME280;35729;52.090;13.162;2023-03-19T06:03:16;100849.50;;;7.51;69.25
49835;BME280;35729;52.090;13.162;2023-03-19T06:05:47;100857.34;;;7.53;68.93
49835;BME280;35729;52.090;13.162;2023-03-19T06:08:16;100869.53;;;7.52;69.18
49835;BME280;35729;52.090;13.162;2023-03-19T06:10:45;100881.69;;;7.56;69.27
49835;BME280;35729;52.090;13.162;2023-03-19T06:13:13;100883.41;;;7.59;69.12
49835;BME280;35729;52.090;13.162;2023-03-19T06:15:42;100884.25;;;7.59;69.18
49835;BME280;35729;52.090;13.162;2023-03-19T06:18:13;100874.69;;;7.61;69.10
49835;BME280;35729;52.090;13.162;2023-03-19T06:20:41;100875.53;;;7.65;69.03
49835;BME280;35729;52.090;13.162;2023-03-19T06:23:10;100888.56;;;7.70;69.07
49835;BME280;35729;52.090;13.162;2023-03-19T06:25:38;100893.75;;;7.73;69.04
49835;BME280;35729;52.090;13.162;2023-03-19T06:28:07;100899.81;;;7.76;69.10
49835;BME280;35729;52.090;13.162;2023-03-19T06:30:36;100893.72;;;7.77;68.84
49835;BME280;35729;52.090;13.162;2023-03-19T06:33:04;100884.13;;;7.81;68.83
49835;BME280;35729;52.090;13.162;2023-03-19T06:35:35;100891.94;;;7.82;68.94
49835;BME280;35729;52.090;13.162;2023-03-19T06:38:04;100898.84;;;7.88;68.80
49835;BME280;35729;52.090;13.162;2023-03-19T06:40:32;100886.63;;;7.92;68.82
49835;BME280;35729;52.090;13.162;2023-03-19T06:43:00;100891.81;;;7.96;68.67
49835;BME280;35729;52.090;13.162;2023-03-19T06:45:29;100896.16;;;7.99;68.55
49835;BME280;35729;52.090;13.162;2023-03-19T06:47:57;100893.47;;;8.04;68.35
49835;BME280;35729;52.090;13.162;2023-03-19T06:50:26;100901.25;;;8.10;68.36
49835;BME280;35729;52.090;13.162;2023-03-19T06:52:57;100897.78;;;8.11;68.23
49835;BME280;35729;52.090;13.162;2023-03-19T06:55:26;100903.78;;;8.22;68.30
49835;BME280;35729;52.090;13.162;2023-03-19T06:57:55;100902.88;;;8.28;67.99
49835;BME280;35729;52.090;13.162;2023-03-19T07:00:23;100903.66;;;8.35;67.55
49835;BME280;35729;52.090;13.162;2023-03-19T07:02:52;100907.06;;;8.41;67.30
49835;BME280;35729;52.090;13.162;2023-03-19T07:05:20;100902.69;;;8.48;66.88
49835;BME280;35729;52.090;13.162;2023-03-19T07:07:49;100899.13;;;8.54;66.80
49835;BME280;35729;52.090;13.162;2023-03-19T07:10:21;100905.16;;;8.60;66.44
49835;BME280;35729;52.090;13.162;2023-03-19T07:12:49;100919.03;;;8.69;66.30
49835;BME280;35729;52.090;13.162;2023-03-19T07:15:18;100922.44;;;8.75;66.27
49835;BME280;35729;52.090;13.162;2023-03-19T07:17:47;100922.38;;;8.82;66.14
49835;BME280;35729;52.090;13.162;2023-03-19T07:20:16;100930.16;;;8.88;65.93
49835;BME280;35729;52.090;13.162;2023-03-19T07:22:45;100924.84;;;8.94;65.85
49835;BME280;35729;52.090;13.162;2023-03-19T07:25:13;100931.75;;;9.00;65.43
49835;BME280;35729;52.090;13.162;2023-03-19T07:27:45;100922.09;;;9.03;65.37
49835;BME280;35729;52.090;13.162;2023-03-19T07:30:14;100930.78;;;9.10;65.24
49835;BME280;35729;52.090;13.162;2023-03-19T07:32:43;100937.69;;;9.14;64.87
49835;BME280;35729;52.090;13.162;2023-03-19T07:35:12;100941.13;;;9.18;64.58
49835;BME280;35729;52.090;13.162;2023-03-19T07:37:41;100941.09;;;9.19;64.39
49835;BME280;35729;52.090;13.162;2023-03-19T07:40:10;100947.19;;;9.20;64.45
49835;BME280;35729;52.090;13.162;2023-03-19T07:42:39;100959.44;;;9.19;64.32
49835;BME280;35729;52.090;13.162;2023-03-19T07:45:10;100978.63;;;9.21;64.12
49835;BME280;35729;52.090;13.162;2023-03-19T07:47:39;101000.41;;;9.22;64.16
49835;BME280;35729;52.090;13.162;2023-03-19T07:50:09;101015.28;;;9.21;64.26
49835;BME280;35729;52.090;13.162;2023-03-19T07:52:38;101014.44;;;9.18;64.77
49835;BME280;35729;52.090;13.162;2023-03-19T07:55:07;101010.16;;;9.10;65.64
49835;BME280;35729;52.090;13.162;2023-03-19T07:57:35;101013.72;;;9.02;66.68
49835;BME280;35729;52.090;13.162;2023-03-19T08:00:05;101014.75;;;8.90;68.17
49835;BME280;35729;52.090;13.162;2023-03-19T08:02:37;100995.66;;;8.77;69.88
49835;BME280;35729;52.090;13.162;2023-03-19T08:05:07;100984.44;;;8.66;71.09
49835;BME280;35729;52.090;13.162;2023-03-19T08:07:36;100981.91;;;8.56;72.45
49835;BME280;35729;52.090;13.162;2023-03-19T08:10:06;100982.88;;;8.47;73.69
49835;BME280;35729;52.090;13.162;2023-03-19T08:12:35;100981.19;;;8.39;74.42
49835;BME280;35729;52.090;13.162;2023-03-19T08:15:07;100975.09;;;8.35;75.42
49835;BME280;35729;52.090;13.162;2023-03-19T08:17:39;100969.03;;;8.30;76.57
49835;BME280;35729;52.090;13.162;2023-03-19T08:20:10;100954.25;;;8.27;77.47
49835;BME280;35729;52.090;13.162;2023-03-19T08:22:41;100936.88;;;8.23;78.29
49835;BME280;35729;52.090;13.162;2023-03-19T08:25:10;100940.38;;;8.22;78.79
49835;BME280;35729;52.090;13.162;2023-03-19T08:27:39;100926.44;;;8.19;79.56
49835;BME280;35729;52.090;13.162;2023-03-19T08:30:10;100921.25;;;8.20;80.21
49835;BME280;35729;52.090;13.162;2023-03-19T08:32:41;100929.06;;;8.22;80.62
49835;BME280;35729;52.090;13.162;2023-03-19T08:35:11;100920.31;;;8.24;80.99
49835;BME280;35729;52.090;13.162;2023-03-19T08:37:40;100923.72;;;8.32;81.65
49835;BME280;35729;52.090;13.162;2023-03-19T08:40:10;100916.69;;;8.39;82.05
49835;BME280;35729;52.090;13.162;2023-03-19T08:42:39;100917.53;;;8.46;82.16
49835;BME280;35729;52.090;13.162;2023-03-19T08:45:09;100915.69;;;8.54;82.48
49835;BME280;35729;52.090;13.162;2023-03-19T08:47:37;100912.13;;;8.61;82.80
49835;BME280;35729;52.090;13.162;2023-03-19T08:50:10;100923.34;;;8.73;82.98
49835;BME280;35729;52.090;13.162;2023-03-19T08:52:38;100916.28;;;8.79;83.16
49835;BME280;35729;52.090;13.162;2023-03-19T08:55:08;100915.31;;;8.90;83.46
49835;BME280;35729;52.090;13.162;2023-03-19T08:57:36;100921.28;;;9.01;83.60
49835;BME280;35729;52.090;13.162;2023-03-19T09:00:06;100921.13;;;9.12;83.94
49835;BME280;35729;52.090;13.162;2023-03-19T09:02:35;100928.81;;;9.24;84.10
49835;BME280;35729;52.090;13.162;2023-03-19T09:05:05;100939.13;;;9.37;84.16
49835;BME280;35729;52.090;13.162;2023-03-19T09:07:36;100931.13;;;9.49;84.05
49835;BME280;35729;52.090;13.162;2023-03-19T09:10:05;100928.28;;;9.61;84.01
49835;BME280;35729;52.090;13.162;2023-03-19T09:12:34;100928.09;;;9.75;84.14
49835;BME280;35729;52.090;13.162;2023-03-19T09:15:03;100933.06;;;9.92;84.15
49835;BME280;35729;52.090;13.162;2023-03-19T09:17:32;100927.56;;;10.08;84.15
49835;BME280;35729;52.090;13.162;2023-03-19T09:20:00;100919.44;;;10.23;83.92
49835;BME280;35729;52.090;13.162;2023-03-19T09:22:39;100921.81;;;10.40;83.16
49835;BME280;35729;52.090;13.162;2023-03-19T09:25:08;100921.56;;;10.54;83.39
49835;BME280;35729;52.090;13.162;2023-03-19T09:27:36;100923.97;;;10.67;83.01
49835;BME280;35729;52.090;13.162;2023-03-19T09:30:06;100915.81;;;10.79;82.83
49835;BME280;35729;52.090;13.162;2023-03-19T09:32:47;100914.75;;;10.89;81.17
49835;BME280;35729;52.090;13.162;2023-03-19T09:35:16;100922.47;;;10.97;80.85
49835;BME280;35729;52.090;13.162;2023-03-19T09:37:47;100919.66;;;11.06;80.15
49835;BME280;35729;52.090;13.162;2023-03-19T09:40:21;100921.19;;;11.17;77.61
49835;BME280;35729;52.090;13.162;2023-03-19T09:43:01;100927.88;;;11.32;79.07
49835;BME280;35729;52.090;13.162;2023-03-19T09:45:33;100916.13;;;11.48;79.16
49835;BME280;35729;52.090;13.162;2023-03-19T09:48:06;100923.63;;;11.64;78.29
49835;BME280;35729;52.090;13.162;2023-03-19T09:50:39;100914.56;;;11.77;77.13
49835;BME280;35729;52.090;13.162;2023-03-19T09:53:14;100913.41;;;11.90;76.81
49835;BME280;35729;52.090;13.162;2023-03-19T09:55:48;100922.81;;;12.01;75.78
49835;BME280;35729;52.090;13.162;2023-03-19T09:58:20;100916.41;;;12.11;75.01
49835;BME280;35729;52.090;13.162;2023-03-19T10:00:51;100928.41;;;12.21;73.63
49835;BME280;35729;52.090;13.162;2023-03-19T10:03:30;100918.59;;;12.28;73.48
49835;BME280;35729;52.090;13.162;2023-03-19T10:06:11;100920.09;;;12.38;73.16
49835;BME280;35729;52.090;13.162;2023-03-19T10:08:59;100919.91;;;12.45;68.71
49835;BME280;35729;52.090;13.162;2023-03-19T10:11:40;100920.63;;;12.51;72.74
49835;BME280;35729;52.090;13.162;2023-03-19T10:14:37;100915.22;;;12.58;71.16
49835;BME280;35729;52.090;13.162;2023-03-19T10:17:15;100918.47;;;12.66;71.35
49835;BME280;35729;52.090;13.162;2023-03-19T10:19:48;100914.66;;;12.76;72.54
49835;BME280;35729;52.090;13.162;2023-03-19T10:22:21;100916.19;;;12.85;71.47
49835;BME280;35729;52.090;13.162;2023-03-19T10:24:55;100921.22;;;12.94;71.05
49835;BME280;35729;52.090;13.162;2023-03-19T10:27:26;100917.44;;;13.03;70.93
49835;BME280;35729;52.090;13.162;2023-03-19T10:29:56;100920.69;;;13.11;71.24
49835;BME280;35729;52.090;13.162;2023-03-19T10:32:30;100917.81;;;13.20;70.77
49835;BME280;35729;52.090;13.162;2023-03-19T10:35:06;100913.16;;;13.29;70.41
49835;BME280;35729;52.090;13.162;2023-03-19T10:37:37;100924.31;;;13.39;70.86
49835;BME280;35729;52.090;13.162;2023-03-19T10:40:16;100917.97;;;13.46;69.47
49835;BME280;35729;52.090;13.162;2023-03-19T10:42:54;100922.81;;;13.58;69.48
49835;BME280;35729;52.090;13.162;2023-03-19T10:45:30;100927.81;;;13.67;69.00
49835;BME280;35729;52.090;13.162;2023-03-19T10:48:02;100923.22;;;13.74;69.07
49835;BME280;35729;52.090;13.162;2023-03-19T10:50:34;100930.81;;;13.83;68.42
49835;BME280;35729;52.090;13.162;2023-03-19T10:53:06;100926.22;;;13.90;68.14
49835;BME280;35729;52.090;13.162;2023-03-19T10:55:53;100924.25;;;13.97;67.31
49835;BME280;35729;52.090;13.162;2023-03-19T10:58:25;100929.31;;;14.03;67.21
49835;BME280;35729;52.090;13.162;2023-03-19T11:00:55;100931.75;;;14.09;67.30
49835;BME280;35729;52.090;13.162;2023-03-19T11:03:30;100926.28;;;14.15;66.32
49835;BME280;35729;52.090;13.162;2023-03-19T11:06:15;100929.50;;;14.24;65.09
49835;BME280;35729;52.090;13.162;2023-03-19T11:08:51;100935.38;;;14.32;66.25
49835;BME280;35729;52.090;13.162;2023-03-19T11:11:31;100933.34;;;14.40;66.03
49835;BME280;35729;52.090;13.162;2023-03-19T11:14:09;100928.66;;;14.48;65.97
49835;BME280;35729;52.090;13.162;2023-03-19T11:16:55;100931.81;;;14.58;63.74
49835;BME280;35729;52.090;13.162;2023-03-19T11:19:26;100922.75;;;14.67;65.78
49835;BME280;35729;52.090;13.162;2023-03-19T11:22:01;100919.88;;;14.73;64.47
49835;BME280;35729;52.090;13.162;2023-03-19T11:24:36;100905.59;;;14.79;64.03
49835;BME280;35729;52.090;13.162;2023-03-19T11:27:08;100919.16;;;14.93;64.38
49835;BME280;35729;52.090;13.162;2023-03-19T11:29:40;100925.81;;;15.04;63.94
49835;BME280;35729;52.090;13.162;2023-03-19T11:32:18;100919.22;;;15.15;63.14
49835;BME280;35729;52.090;13.162;2023-03-19T11:34:52;100912.66;;;15.26;62.63
49835;BME280;35729;52.090;13.162;2023-03-19T11:37:29;100902.59;;;15.36;61.76
49835;BME280;35729;52.090;13.162;2023-03-19T11:40:08;100897.91;;;15.42;60.63
49835;BME280;35729;52.090;13.162;2023-03-19T11:42:54;100901.13;;;15.51;60.73
49835;BME280;35729;52.090;13.162;2023-03-19T11:45:30;100884.94;;;15.58;61.00
49835;BME280;35729;52.090;13.162;2023-03-19T11:48:16;100894.28;;;15.67;58.90
49835;BME280;35729;52.090;13.162;2023-03-19T11:50:49;100885.97;;;15.76;60.05
49835;BME280;35729;52.090;13.162;2023-03-19T11:53:25;100891.72;;;15.88;59.54
49835;BME280;35729;52.090;13.162;2023-03-19T11:56:09;100882.47;;;15.98;57.86
49835;BME280;35729;52.090;13.162;2023-03-19T11:59:16;100878.50;;;16.08;57.00
49835;BME280;35729;52.090;13.162;2023-03-19T12:02:07;100872.69;;;16.21;56.80
49835;BME280;35729;52.090;13.162;2023-03-19T12:07:44;100884.59;;;16.52;57.63
49835;BME280;35729;52.090;13.162;2023-03-19T12:10:27;100875.16;;;16.65;56.69
49835;BME280;35729;52.090;13.162;2023-03-19T12:13:05;100877.41;;;16.74;56.88
49835;BME280;35729;52.090;13.162;2023-03-19T12:15:44;100876.97;;;16.84;56.23
49835;BME280;35729;52.090;13.162;2023-03-19T12:18:23;100881.03;;;16.92;55.98
49835;BME280;35729;52.090;13.162;2023-03-19T12:21:01;100877.16;;;17.00;55.94
49835;BME280;35729;52.090;13.162;2023-03-19T12:23:41;100873.19;;;17.08;55.86
49835;BME280;35729;52.090;13.162;2023-03-19T12:26:17;100872.84;;;17.16;54.98
49835;BME280;35729;52.090;13.162;2023-03-19T12:28:55;100876.00;;;17.24;54.94
49835;BME280;35729;52.090;13.162;2023-03-19T12:31:58;100861.66;;;17.29;54.01
49835;BME280;35729;52.090;13.162;2023-03-19T12:34:35;100875.31;;;17.38;54.26
49835;BME280;35729;52.090;13.162;2023-03-19T12:37:16;100867.88;;;17.47;54.08
49835;BME280;35729;52.090;13.162;2023-03-19T12:40:04;100871.91;;;17.54;53.77
49835;BME280;35729;52.090;13.162;2023-03-19T12:42:37;100866.19;;;17.63;53.89
49835;BME280;35729;52.090;13.162;2023-03-19T12:45:17;100868.28;;;17.74;53.03
49835;BME280;35729;52.090;13.162;2023-03-19T12:47:55;100868.69;;;17.84;53.01
49835;BME280;35729;52.090;13.162;2023-03-19T12:50:25;100866.66;;;17.89;52.76
49835;BME280;35729;52.090;13.162;2023-03-19T12:52:55;100870.88;;;17.93;52.39
49835;BME280;35729;52.090;13.162;2023-03-19T12:55:32;100866.31;;;17.97;49.89
49835;BME280;35729;52.090;13.162;2023-03-19T12:58:06;100859.97;;;17.99;50.30
49835;BME280;35729;52.090;13.162;2023-03-19T13:00:45;100858.19;;;18.00;49.30
49835;BME280;35729;52.090;13.162;2023-03-19T13:03:24;100865.06;;;18.04;48.46
49835;BME280;35729;52.090;13.162;2023-03-19T13:05:59;100867.50;;;18.09;49.90
49835;BME280;35729;52.090;13.162;2023-03-19T13:08:31;100865.47;;;18.14;49.38
49835;BME280;35729;52.090;13.162;2023-03-19T13:11:05;100866.00;;;18.20;50.22
49835;BME280;35729;52.090;13.162;2023-03-19T13:13:40;100864.81;;;18.26;49.60